Time;durP1;ratioP1;P1;durP2;ratioP2;P2;SDS_P1;SDS_P2;PMS_P1;PMS_P2;Temp;Humidity;BMP_temperature;BMP_pressure;BME280_temperature;BME280_humidity;BME280_pressure;Samples;Min_cycle;Max_cycle;Signal;HPM_P1;HPM_P2
2022/01/06 00:01:23;;;;;;;13.90;2.30;;;;;;;6.81;63.43;101665.75;4855950;28;20062;-59
2022/01/06 00:03:49;;;;;;;21.60;2.53;;;;;;;6.84;64.17;101677.94;4856897;28;20049;-59
2022/01/06 00:06:14;;;;;;;19.33;2.22;;;;;;;6.95;63.60;101679.28;4862632;28;20075;-59
2022/01/06 00:08:40;;;;;;;16.58;2.17;;;;;;;6.93;63.58;101683.50;4865128;28;20081;-59
2022/01/06 00:11:07;;;;;;;17.90;2.35;;;;;;;7.00;63.43;101685.53;4863648;28;20072;-59
2022/01/06 00:13:45;;;;;;;18.05;2.10;;;;;;;7.07;63.12;101697.03;4856149;28;20309;-59
2022/01/06 00:16:26;;;;;;;17.38;2.20;;;;;;;7.06;62.97;101692.66;4865534;28;20056;-59
2022/01/06 00:24:27;;;;;;;15.82;1.95;;;;;;;6.92;62.54;101700.75;4866161;28;20044;-58
2022/01/06 00:26:57;;;;;;;15.35;2.00;;;;;;;6.91;62.61;101692.91;4864850;28;20106;-59
2022/01/06 00:29:24;;;;;;;21.33;2.15;;;;;;;6.83;62.69;101695.19;4865164;28;20391;-58
2022/01/06 00:31:50;;;;;;;15.63;1.90;;;;;;;6.84;62.62;101696.06;4855787;28;20056;-58
2022/01/06 00:34:16;;;;;;;12.90;2.00;;;;;;;6.77;62.43;101694.94;4864808;28;20056;-60
2022/01/06 00:36:42;;;;;;;12.98;1.73;;;;;;;6.72;62.03;101696.44;4854669;28;20515;-60
2022/01/06 00:39:09;;;;;;;13.15;1.80;;;;;;;6.72;61.65;101698.16;4867410;28;20497;-59
2022/01/06 00:41:36;;;;;;;12.48;1.50;;;;;;;6.67;61.75;101703.16;4858175;28;20168;-60
2022/01/06 00:44:03;;;;;;;11.05;1.77;;;;;;;6.59;61.94;101701.94;4860900;28;20499;-60
2022/01/06 00:46:28;;;;;;;15.65;1.80;;;;;;;6.52;62.48;101710.28;4861621;28;20045;-61
2022/01/06 00:48:54;;;;;;;13.13;2.00;;;;;;;6.53;62.13;101709.44;4862518;28;20111;-59
2022/01/06 00:51:19;;;;;;;16.20;2.33;;;;;;;6.38;62.82;101712.28;4860108;28;20128;-58
2022/01/06 00:53:45;;;;;;;11.18;1.73;;;;;;;6.32;63.11;101709.41;4856816;28;20297;-59
2022/01/06 00:56:10;;;;;;;8.38;1.80;;;;;;;6.27;63.41;101713.53;4864880;28;20047;-59
2022/01/06 00:58:35;;;;;;;13.05;1.52;;;;;;;6.21;63.88;101713.25;4855890;28;20056;-58
2022/01/06 01:01:01;;;;;;;21.55;2.10;;;;;;;6.28;63.81;101717.84;4870641;28;20373;-59
2022/01/06 01:03:27;;;;;;;15.55;2.10;;;;;;;6.26;63.99;101714.34;4865875;28;20561;-59
2022/01/06 01:05:55;;;;;;;11.95;1.70;;;;;;;6.21;64.09;101722.72;4861388;28;20064;-59
2022/01/06 01:08:22;;;;;;;10.85;1.88;;;;;;;6.07;64.72;101725.56;4881759;28;20079;-59
2022/01/06 01:10:49;;;;;;;14.27;2.00;;;;;;;6.00;65.02;101728.69;4859558;28;20102;-59
2022/01/06 01:13:16;;;;;;;14.32;2.20;;;;;;;5.98;65.03;101719.97;4868622;28;20042;-59
2022/01/06 01:15:51;;;;;;;12.65;1.90;;;;;;;6.03;64.80;101721.09;4865528;28;20532;-60
2022/01/06 01:18:19;;;;;;;17.40;2.33;;;;;;;5.98;65.15;101726.84;4854802;28;20179;-57
2022/01/06 01:20:48;;;;;;;21.15;2.20;;;;;;;6.01;65.16;101734.75;4862262;28;20041;-57
2022/01/06 01:23:14;;;;;;;12.80;2.38;;;;;;;5.97;65.21;101736.34;4864939;28;20112;-59
2022/01/06 01:25:42;;;;;;;11.60;1.80;;;;;;;5.94;65.17;101735.28;4860478;28;20111;-57
2022/01/06 01:28:09;;;;;;;16.35;1.67;;;;;;;5.82;66.12;101742.47;4860510;28;20045;-56
2022/01/06 01:31:00;;;;;;;12.52;2.10;;;;;;;5.72;65.94;101739.47;4861712;28;20053;-58
2022/01/06 01:33:24;;;;;;;13.07;1.88;;;;;;;5.68;66.50;101747.88;4856144;28;20036;-57
2022/01/06 01:35:50;;;;;;;11.10;1.67;;;;;;;5.59;66.19;101736.22;4860973;28;20056;-57
2022/01/06 01:38:15;;;;;;;12.88;1.60;;;;;;;5.51;66.92;101748.78;4863939;28;20479;-58
2022/01/06 01:40:40;;;;;;;14.30;1.90;;;;;;;5.46;67.00;101749.38;4864468;28;20465;-55
2022/01/06 01:43:06;;;;;;;15.50;1.95;;;;;;;5.45;67.61;101757.94;4862589;28;20213;-57
2022/01/06 01:45:33;;;;;;;14.40;1.77;;;;;;;5.47;68.46;101754.63;4848443;28;20049;-58
2022/01/06 01:48:03;;;;;;;12.55;1.70;;;;;;;5.52;68.41;101765.19;4862842;28;20075;-59
2022/01/06 01:50:28;;;;;;;11.15;2.03;;;;;;;5.51;68.25;101764.31;4864611;28;20213;-57
2022/01/06 01:52:56;;;;;;;12.07;1.50;;;;;;;5.50;68.35;101769.41;4862197;28;20032;-57
2022/01/06 01:55:28;;;;;;;11.27;1.88;;;;;;;5.46;68.01;101773.56;4867394;28;20048;-58
2022/01/06 01:57:54;;;;;;;4.45;1.40;;;;;;;5.44;67.95;101774.28;4865755;28;20316;-58
2022/01/06 02:00:21;;;;;;;9.73;1.73;;;;;;;5.37;68.44;101767.91;4880523;28;20054;-57
2022/01/06 02:02:47;;;;;;;13.32;1.90;;;;;;;5.39;68.70;101766.31;4861416;28;20044;-57
2022/01/06 02:05:12;;;;;;;12.98;1.75;;;;;;;5.37;68.88;101764.47;4883808;28;20484;-57
2022/01/06 02:07:39;;;;;;;10.27;1.58;;;;;;;5.37;69.01;101765.34;4857070;28;20487;-60
2022/01/06 02:10:05;;;;;;;9.40;1.55;;;;;;;5.37;68.91;101759.31;4866699;28;20403;-60
2022/01/06 02:12:35;;;;;;;15.75;2.10;;;;;;;5.40;69.09;101765.50;4866737;28;20052;-59
2022/01/06 02:15:00;;;;;;;15.10;1.85;;;;;;;5.44;68.76;101769.09;4859047;28;20866;-59
2022/01/06 02:17:26;;;;;;;15.88;1.95;;;;;;;5.46;68.85;101783.91;4860231;28;20040;-58
2022/01/06 02:19:56;;;;;;;11.77;1.52;;;;;;;5.45;68.81;101783.81;4862069;28;20053;-58
2022/01/06 02:22:22;;;;;;;10.25;1.60;;;;;;;5.44;69.07;101782.03;4868793;28;20645;-59
2022/01/06 02:24:48;;;;;;;9.20;1.73;;;;;;;5.39;69.02;101787.00;4865561;28;20205;-58
2022/01/06 02:27:13;;;;;;;10.73;1.58;;;;;;;5.38;69.27;101792.97;4865366;28;20056;-58
2022/01/06 02:29:39;;;;;;;7.82;1.33;;;;;;;5.42;69.60;101787.16;4855800;28;20480;-59
2022/01/06 02:32:10;;;;;;;13.25;1.98;;;;;;;5.52;69.49;101789.38;4864215;28;20079;-59
2022/01/06 02:34:35;;;;;;;13.45;1.98;;;;;;;5.60;69.59;101787.16;4856152;28;20523;-59
2022/01/06 02:37:02;;;;;;;13.05;1.90;;;;;;;5.61;69.36;101789.78;4864716;28;20049;-59
2022/01/06 02:39:27;;;;;;;10.30;1.70;;;;;;;5.67;69.36;101791.81;4862200;28;20057;-60
2022/01/06 02:41:52;;;;;;;13.15;1.85;;;;;;;5.75;69.19;101799.91;4864784;28;20380;-58
2022/01/06 02:44:20;;;;;;;17.38;2.20;;;;;;;5.76;69.43;101793.94;4861595;28;20036;-60
2022/01/06 02:46:45;;;;;;;18.90;1.85;;;;;;;5.76;69.19;101806.88;4858131;28;20037;-56
2022/01/06 02:49:11;;;;;;;10.25;1.48;;;;;;;5.84;69.26;101806.44;4860753;28;20075;-59
2022/01/06 02:51:39;;;;;;;15.75;1.60;;;;;;;5.92;69.41;101807.69;4874838;28;20914;-57
2022/01/06 02:54:04;;;;;;;15.48;2.65;;;;;;;5.97;69.49;101815.69;4863178;28;20048;-58
2022/01/06 02:56:32;;;;;;;16.63;1.90;;;;;;;6.05;69.07;101822.97;4866920;28;20072;-58
2022/01/06 02:58:57;;;;;;;16.58;2.20;;;;;;;6.10;68.63;101820.59;4864040;28;20532;-58
2022/01/06 03:01:23;;;;;;;24.38;3.03;;;;;;;6.24;67.96;101816.94;4857472;28;20130;-57
2022/01/06 03:03:49;;;;;;;14.32;2.10;;;;;;;6.31;67.93;101819.00;4853591;28;20055;-58
2022/01/06 03:06:14;;;;;;;8.82;1.10;;;;;;;6.32;64.24;101815.59;4863277;28;20032;-60
2022/01/06 03:08:39;;;;;;;6.85;0.93;;;;;;;6.61;62.95;101803.06;4860395;28;20072;-56
2022/01/06 03:11:07;;;;;;;7.63;1.50;;;;;;;6.77;61.48;101801.19;4861251;28;20835;-56
2022/01/06 03:13:32;;;;;;;7.30;1.45;;;;;;;6.72;61.33;101801.81;4865512;28;20072;-57
2022/01/06 03:15:58;;;;;;;10.70;1.42;;;;;;;6.70;62.18;101799.19;4877361;28;20519;-59
2022/01/06 03:18:23;;;;;;;4.97;0.90;;;;;;;6.67;61.63;101799.03;4865952;28;20049;-57
2022/01/06 03:20:48;;;;;;;13.45;1.30;;;;;;;6.64;61.17;101798.91;4876827;28;20087;-58
2022/01/06 03:23:14;;;;;;;6.63;1.15;;;;;;;6.70;61.43;101804.34;4864780;28;20212;-59
2022/01/06 03:25:39;;;;;;;5.75;1.02;;;;;;;6.72;61.66;101802.69;4856472;28;20148;-57
2022/01/06 03:28:04;;;;;;;4.30;0.93;;;;;;;6.77;60.67;101813.28;4862011;28;20565;-57
2022/01/06 03:30:30;;;;;;;8.18;1.23;;;;;;;6.84;60.13;101817.88;4862042;28;20044;-59
2022/01/06 03:32:55;;;;;;;11.82;1.42;;;;;;;6.85;61.05;101846.47;4864167;28;20075;-58
2022/01/06 03:35:23;;;;;;;9.95;1.33;;;;;;;6.98;63.34;101840.13;4860607;28;20602;-58
2022/01/06 03:37:49;;;;;;;9.80;1.70;;;;;;;6.86;65.37;101850.84;4855102;28;20048;-59
2022/01/06 03:40:15;;;;;;;9.93;1.25;;;;;;;6.70;67.95;101834.56;4862351;28;20406;-59
2022/01/06 03:42:41;;;;;;;8.70;1.30;;;;;;;6.56;68.42;101840.81;4868871;28;20070;-59
2022/01/06 03:45:09;;;;;;;7.85;1.15;;;;;;;6.36;68.57;101837.34;4885101;28;20701;-58
2022/01/06 03:47:34;;;;;;;7.35;1.10;;;;;;;6.14;68.76;101848.41;4857999;28;20059;-59
2022/01/06 03:49:59;;;;;;;10.80;1.20;;;;;;;5.93;70.51;101842.22;4860007;28;20045;-58
2022/01/06 03:52:25;;;;;;;12.63;1.20;;;;;;;5.84;70.18;101841.75;4852036;28;20203;-58
2022/01/06 03:54:51;;;;;;;5.85;0.98;;;;;;;5.77;70.51;101855.22;4862338;28;20107;-59
2022/01/06 03:57:17;;;;;;;9.65;0.88;;;;;;;5.69;70.72;101850.56;4862575;28;20106;-59
2022/01/06 03:59:42;;;;;;;7.22;1.17;;;;;;;5.61;71.56;101851.88;4856160;28;20840;-59
2022/01/06 04:02:07;;;;;;;9.05;1.00;;;;;;;5.61;71.68;101851.00;4866662;28;20087;-59
2022/01/06 04:04:33;;;;;;;10.43;1.02;;;;;;;5.53;71.47;101852.31;4864807;28;20135;-59
2022/01/06 04:06:58;;;;;;;4.00;0.90;;;;;;;5.44;71.38;101847.56;4874773;28;21272;-59
2022/01/06 04:09:24;;;;;;;5.20;0.80;;;;;;;5.36;71.47;101853.19;4864330;28;20044;-59
2022/01/06 04:11:50;;;;;;;5.55;0.90;;;;;;;5.26;71.58;101852.72;4863116;28;20329;-60
2022/01/06 04:14:15;;;;;;;5.10;0.90;;;;;;;5.20;71.74;101852.41;4890722;28;20037;-59
2022/01/06 04:16:41;;;;;;;4.22;1.00;;;;;;;5.12;71.81;101845.97;4864036;28;20053;-59
2022/01/06 04:19:06;;;;;;;5.50;1.10;;;;;;;5.10;72.16;101854.47;4857625;28;20146;-60
2022/01/06 04:21:32;;;;;;;8.52;1.00;;;;;;;5.06;72.12;101849.97;4855407;28;20140;-59
2022/01/06 04:23:57;;;;;;;10.50;1.27;;;;;;;4.97;72.65;101852.94;4866445;28;20463;-59
2022/01/06 04:26:23;;;;;;;7.25;0.82;;;;;;;4.91;72.10;101855.22;4867593;28;20054;-59
2022/01/06 04:28:48;;;;;;;7.60;0.93;;;;;;;4.95;73.31;101858.84;4861693;28;20044;-59
2022/01/06 04:31:13;;;;;;;4.75;1.00;;;;;;;4.90;73.15;101866.34;4866969;28;20132;-60
2022/01/06 04:33:39;;;;;;;14.65;1.20;;;;;;;4.93;72.93;101869.13;4858605;28;20127;-60
2022/01/06 04:36:05;;;;;;;10.43;1.38;;;;;;;4.96;73.28;101870.94;4859982;28;20051;-58
2022/01/06 04:38:31;;;;;;;6.38;1.20;;;;;;;4.97;73.23;101865.88;4866932;28;20052;-59
2022/01/06 04:40:57;;;;;;;9.77;1.20;;;;;;;4.98;73.58;101859.91;4865998;28;20095;-59
2022/01/06 04:43:23;;;;;;;4.55;0.90;;;;;;;4.99;73.51;101855.63;4859005;28;20148;-58
2022/01/06 04:45:51;;;;;;;7.53;1.40;;;;;;;5.03;72.83;101857.53;4856926;28;20045;-59
2022/01/06 04:48:16;;;;;;;9.48;1.10;;;;;;;5.05;73.09;101858.50;4869701;28;20032;-59
2022/01/06 04:50:42;;;;;;;9.98;1.15;;;;;;;5.02;72.80;101868.69;4860790;28;20055;-60
2022/01/06 04:53:07;;;;;;;10.43;1.20;;;;;;;5.04;73.05;101867.06;4867774;28;20126;-58
2022/01/06 04:55:32;;;;;;;8.73;0.80;;;;;;;5.05;73.51;101866.28;4863466;28;20050;-59
2022/01/06 04:57:58;;;;;;;4.65;0.90;;;;;;;5.06;73.56;101871.50;4862570;28;20156;-59
2022/01/06 05:00:23;;;;;;;7.57;0.95;;;;;;;5.12;72.99;101876.13;4864598;28;20171;-59
2022/01/06 05:02:48;;;;;;;7.40;1.25;;;;;;;5.19;73.22;101881.66;4870836;28;20119;-59
2022/01/06 05:05:14;;;;;;;4.60;0.80;;;;;;;5.16;73.61;101883.22;4865679;28;20041;-59
2022/01/06 05:07:42;;;;;;;9.23;1.00;;;;;;;5.13;73.42;101878.75;4855758;28;20048;-61
2022/01/06 05:10:08;;;;;;;7.72;0.90;;;;;;;5.12;73.13;101878.69;4863166;28;20048;-61
2022/01/06 05:12:38;;;;;;;5.03;0.73;;;;;;;5.08;72.66;101889.66;4863029;28;20056;-60
2022/01/06 05:15:04;;;;;;;4.72;1.40;;;;;;;4.99;72.95;101881.47;4863800;28;20109;-59
2022/01/06 05:17:31;;;;;;;5.18;1.10;;;;;;;4.95;72.66;101887.25;4856824;28;20484;-58
2022/01/06 05:19:56;;;;;;;10.63;1.27;;;;;;;4.85;72.30;101883.31;4872183;28;20140;-58
2022/01/06 05:22:22;;;;;;;8.00;1.00;;;;;;;4.85;72.39;101891.06;4862283;28;20110;-58
2022/01/06 05:24:47;;;;;;;7.50;1.30;;;;;;;4.75;72.73;101886.25;4863475;28;20052;-61
2022/01/06 05:27:13;;;;;;;5.07;1.15;;;;;;;4.65;73.08;101890.00;4861119;28;20067;-58
2022/01/06 05:29:38;;;;;;;4.45;1.00;;;;;;;4.59;72.48;101892.25;4852840;28;20053;-58
2022/01/06 05:32:04;;;;;;;7.10;1.00;;;;;;;4.52;72.50;101885.00;4854102;28;20043;-60
2022/01/06 05:34:29;;;;;;;9.32;1.02;;;;;;;4.49;72.34;101888.31;4865886;28;20060;-60
2022/01/06 05:36:55;;;;;;;5.40;1.00;;;;;;;4.42;72.52;101887.91;4858543;28;20037;-59
2022/01/06 05:39:20;;;;;;;9.20;1.35;;;;;;;4.37;72.49;101885.06;4865359;28;20139;-60
2022/01/06 05:41:46;;;;;;;3.35;1.00;;;;;;;4.38;72.76;101891.13;4854871;28;20048;-58
2022/01/06 05:44:12;;;;;;;8.20;1.20;;;;;;;4.35;72.79;101894.41;4865141;28;20036;-60
2022/01/06 05:46:37;;;;;;;5.45;1.10;;;;;;;4.35;72.98;101888.38;4861965;28;20665;-59
2022/01/06 05:49:03;;;;;;;5.57;1.15;;;;;;;4.35;72.86;101897.00;4865544;28;20052;-59
2022/01/06 05:51:28;;;;;;;9.20;1.20;;;;;;;4.33;73.09;101901.19;4859224;28;20382;-59
2022/01/06 05:53:54;;;;;;;3.55;1.08;;;;;;;4.32;72.77;101896.84;4862766;28;20064;-58
2022/01/06 05:56:20;;;;;;;11.00;1.10;;;;;;;4.25;72.94;101899.00;4889015;28;20160;-58
2022/01/06 05:58:45;;;;;;;4.50;1.00;;;;;;;4.20;73.05;101900.44;4859319;28;20048;-59
2022/01/06 06:01:10;;;;;;;3.95;0.90;;;;;;;4.15;72.74;101910.50;4858500;28;20041;-58
2022/01/06 06:03:36;;;;;;;5.40;1.02;;;;;;;4.14;72.87;101913.91;4857149;28;20037;-59
2022/01/06 06:06:01;;;;;;;2.90;0.90;;;;;;;4.08;73.12;101918.72;4856396;28;20072;-59
2022/01/06 06:08:27;;;;;;;5.85;1.00;;;;;;;4.00;72.85;101914.81;4861318;28;20048;-58
2022/01/06 06:10:52;;;;;;;4.70;0.90;;;;;;;3.95;72.74;101921.41;4862807;28;20459;-58
2022/01/06 06:13:17;;;;;;;2.70;0.90;;;;;;;3.87;72.94;101927.81;4867960;28;20459;-59
2022/01/06 06:15:43;;;;;;;5.95;0.98;;;;;;;3.81;73.48;101928.34;4862888;28;20278;-58
2022/01/06 06:18:12;;;;;;;5.25;1.00;;;;;;;3.78;73.15;101929.88;4861207;28;20365;-59
2022/01/06 06:20:38;;;;;;;5.65;1.35;;;;;;;3.82;72.82;101937.88;4866263;28;20567;-59
2022/01/06 06:23:04;;;;;;;4.32;1.20;;;;;;;3.85;72.87;101935.47;4861862;28;20052;-59
2022/01/06 06:25:29;;;;;;;4.60;1.20;;;;;;;3.85;74.09;101935.47;4854900;28;20045;-60
2022/01/06 06:27:54;;;;;;;8.88;1.45;;;;;;;3.87;73.66;101940.72;4860938;28;20506;-60
2022/01/06 06:30:20;;;;;;;6.55;1.45;;;;;;;3.83;73.55;101946.50;4866050;28;20155;-59
2022/01/06 06:32:45;;;;;;;7.30;1.20;;;;;;;3.83;73.00;101951.66;4861653;28;20048;-58
2022/01/06 06:35:11;;;;;;;4.53;1.20;;;;;;;3.78;73.70;101951.38;4863660;28;20052;-59
2022/01/06 06:37:37;;;;;;;5.30;1.30;;;;;;;3.75;72.90;101958.06;4854171;28;20593;-58
2022/01/06 06:40:04;;;;;;;3.65;1.10;;;;;;;3.73;73.42;101954.50;4859810;28;20090;-59
2022/01/06 06:42:29;;;;;;;7.35;1.25;;;;;;;3.70;73.89;101957.81;4869156;28;20472;-58
2022/01/06 06:44:55;;;;;;;9.23;1.20;;;;;;;3.69;73.12;101963.75;4861497;28;20119;-59
2022/01/06 06:47:20;;;;;;;6.68;1.20;;;;;;;3.68;73.40;101968.03;4863480;28;20047;-60
2022/01/06 06:49:46;;;;;;;3.53;1.30;;;;;;;3.67;73.38;101965.34;4854415;28;20654;-58
2022/01/06 06:52:11;;;;;;;5.35;1.25;;;;;;;3.66;73.63;101968.72;4864592;28;20307;-58
2022/01/06 06:54:37;;;;;;;7.13;1.80;;;;;;;3.68;73.33;101967.13;4859393;28;20029;-58
2022/01/06 06:57:02;;;;;;;6.75;1.40;;;;;;;3.69;73.31;101961.19;4863661;28;20053;-58
2022/01/06 06:59:34;;;;;;;6.97;1.25;;;;;;;3.65;73.22;101960.13;4856708;28;20044;-58
2022/01/06 07:01:59;;;;;;;6.07;1.52;;;;;;;3.61;73.43;101954.69;4877334;28;20335;-59
2022/01/06 07:04:25;;;;;;;6.07;1.58;;;;;;;3.55;73.19;101962.06;4862703;28;20131;-58
2022/01/06 07:06:50;;;;;;;7.28;1.55;;;;;;;3.51;73.28;101965.25;4863692;28;20040;-57
2022/01/06 07:09:15;;;;;;;6.35;1.27;;;;;;;3.46;73.66;101961.53;4868580;28;20045;-58
2022/01/06 07:11:41;;;;;;;8.35;1.50;;;;;;;3.44;73.26;101966.59;4860418;28;21100;-58
2022/01/06 07:14:06;;;;;;;8.13;1.60;;;;;;;3.44;73.19;101964.00;4869344;28;20433;-57
2022/01/06 07:16:32;;;;;;;7.68;1.63;;;;;;;3.46;74.17;101962.41;4863129;28;20095;-59
2022/01/06 07:18:57;;;;;;;10.10;1.70;;;;;;;3.50;74.66;101972.09;4863607;28;20047;-59
2022/01/06 07:21:23;;;;;;;9.60;1.70;;;;;;;3.55;74.61;101969.78;4868304;28;20044;-58
2022/01/06 07:23:48;;;;;;;10.07;1.65;;;;;;;3.61;74.21;101970.16;4857010;28;20061;-58
2022/01/06 07:26:14;;;;;;;7.15;1.60;;;;;;;3.66;74.38;101974.78;4865232;28;20466;-58
2022/01/06 07:28:39;;;;;;;6.90;1.58;;;;;;;3.76;74.10;101978.78;4857894;28;20504;-59
2022/01/06 07:31:05;;;;;;;7.22;1.35;;;;;;;3.82;74.07;101978.25;4868158;28;20046;-59
2022/01/06 07:33:31;;;;;;;6.85;1.73;;;;;;;3.84;74.53;101982.69;4856594;28;20153;-59
2022/01/06 07:35:56;;;;;;;7.93;1.80;;;;;;;3.86;74.78;101981.09;4869190;28;20103;-59
2022/01/06 07:38:22;;;;;;;7.63;1.60;;;;;;;3.81;74.18;101990.25;4863396;28;20372;-58
2022/01/06 07:40:48;;;;;;;6.65;1.52;;;;;;;3.78;74.32;101987.50;4874857;28;20213;-59
2022/01/06 07:43:13;;;;;;;6.88;1.73;;;;;;;3.77;74.04;101979.69;4864355;28;20104;-59
2022/01/06 07:45:39;;;;;;;7.82;1.85;;;;;;;3.73;74.36;101988.91;4858590;28;20098;-59
2022/01/06 07:48:14;;;;;;;5.63;1.70;;;;;;;3.68;74.36;101991.25;4864230;28;20135;-58
2022/01/06 07:50:40;;;;;;;7.53;1.40;;;;;;;3.70;73.73;102001.66;4864446;28;20080;-59
2022/01/06 07:53:05;;;;;;;7.65;1.63;;;;;;;3.67;74.07;101989.44;4864740;28;20049;-59
2022/01/06 07:55:31;;;;;;;14.90;2.63;;;;;;;3.66;74.41;101991.94;4860622;28;20044;-60
2022/01/06 07:57:56;;;;;;;12.65;2.60;;;;;;;3.65;74.50;102000.50;4874492;28;20080;-59
2022/01/06 08:00:22;;;;;;;15.20;2.78;;;;;;;3.64;74.39;101991.88;4879140;28;20147;-59
2022/01/06 08:02:48;;;;;;;17.15;2.97;;;;;;;3.66;74.33;102003.13;4863676;28;20318;-58
2022/01/06 08:05:15;;;;;;;16.10;3.03;;;;;;;3.67;74.45;102002.34;4862411;28;20052;-59
2022/01/06 08:07:41;;;;;;;13.95;3.20;;;;;;;3.67;74.71;101999.75;4856080;28;20056;-60
2022/01/06 08:10:08;;;;;;;15.05;2.97;;;;;;;3.67;74.56;102004.91;4869736;28;20519;-60
2022/01/06 08:12:33;;;;;;;12.23;3.10;;;;;;;3.72;74.19;102009.47;4853126;28;20076;-60
2022/01/06 08:14:59;;;;;;;15.48;3.35;;;;;;;3.78;74.20;102005.53;4885500;28;20139;-60
2022/01/06 08:17:24;;;;;;;10.50;2.80;;;;;;;3.94;74.85;102020.25;4852899;28;20076;-60
2022/01/06 08:19:51;;;;;;;13.93;2.70;;;;;;;4.11;75.35;102023.78;4861635;28;20111;-60
2022/01/06 08:22:17;;;;;;;13.73;3.03;;;;;;;4.28;75.47;102023.06;4863156;28;20133;-60
2022/01/06 08:24:43;;;;;;;9.45;2.70;;;;;;;4.38;75.30;102021.09;4861702;28;20055;-59
2022/01/06 08:27:08;;;;;;;14.45;3.42;;;;;;;4.49;75.00;102019.13;4861102;28;20268;-58
2022/01/06 08:29:35;;;;;;;15.30;2.63;;;;;;;4.58;75.10;102021.31;4861554;28;20036;-59
2022/01/06 08:32:00;;;;;;;14.27;3.28;;;;;;;4.68;75.50;102024.50;4862521;28;21672;-60
2022/01/06 08:34:26;;;;;;;20.77;3.20;;;;;;;4.81;75.36;102031.25;4856295;28;20613;-59
2022/01/06 08:36:53;;;;;;;15.02;3.05;;;;;;;4.93;75.41;102031.00;4868648;28;20413;-59
2022/01/06 08:39:19;;;;;;;16.40;2.72;;;;;;;5.03;75.33;102029.00;4867839;28;20048;-59
2022/01/06 08:41:44;;;;;;;11.90;2.90;;;;;;;5.19;75.60;102028.13;4858026;28;20261;-59
2022/01/06 08:44:09;;;;;;;12.27;2.78;;;;;;;5.33;75.60;102024.56;4850483;28;20495;-59
2022/01/06 08:46:35;;;;;;;13.73;2.80;;;;;;;5.49;75.49;102031.44;4864983;28;20056;-59
2022/01/06 08:49:02;;;;;;;12.55;3.00;;;;;;;5.55;75.38;102026.59;4858804;28;20040;-58
2022/01/06 08:51:28;;;;;;;13.98;3.00;;;;;;;5.62;75.16;102026.97;4863623;28;20175;-59
2022/01/06 08:53:53;;;;;;;16.33;3.03;;;;;;;5.60;74.71;102031.19;4863460;28;20052;-59
2022/01/06 08:56:19;;;;;;;12.98;3.33;;;;;;;5.63;74.39;102033.03;4861362;28;20746;-59
2022/01/06 08:58:45;;;;;;;16.75;3.35;;;;;;;5.68;74.28;102035.03;4861496;28;20123;-59
2022/01/06 09:01:11;;;;;;;15.82;3.50;;;;;;;5.87;74.59;102036.91;4856072;28;20056;-59
2022/01/06 09:03:37;;;;;;;9.35;2.90;;;;;;;6.10;74.51;102026.00;4858370;28;20056;-59
2022/01/06 09:06:03;;;;;;;11.90;2.97;;;;;;;6.24;75.00;102028.38;4866903;28;20398;-59
2022/01/06 09:08:28;;;;;;;10.70;2.83;;;;;;;6.33;74.78;102029.75;4863189;28;20060;-59
2022/01/06 09:10:54;;;;;;;13.25;3.63;;;;;;;6.35;73.91;102034.97;4857442;28;20287;-59
2022/01/06 09:13:19;;;;;;;17.38;2.88;;;;;;;6.38;73.78;102027.38;4862909;28;20495;-60
2022/01/06 09:15:44;;;;;;;14.02;2.60;;;;;;;6.47;73.92;102032.97;4877490;28;20378;-59
2022/01/06 09:18:10;;;;;;;13.43;2.63;;;;;;;6.46;73.43;102031.22;4855024;28;20238;-59
2022/01/06 09:20:35;;;;;;;13.80;3.20;;;;;;;6.42;73.21;102030.19;4861333;28;20064;-59
2022/01/06 09:23:00;;;;;;;12.45;2.55;;;;;;;6.46;73.37;102029.50;4866045;28;20075;-59
2022/01/06 09:25:26;;;;;;;12.32;2.40;;;;;;;6.44;73.08;102025.97;4861773;28;20144;-59
2022/01/06 09:27:53;;;;;;;16.10;2.60;;;;;;;6.46;73.20;102034.69;4864525;28;20037;-59
2022/01/06 09:30:23;;;;;;;13.20;2.40;;;;;;;6.55;73.36;102029.06;4857589;28;20453;-59
2022/01/06 09:32:48;;;;;;;9.25;2.45;;;;;;;6.55;73.14;102028.16;4876536;28;20401;-59
2022/01/06 09:35:14;;;;;;;10.85;2.70;;;;;;;6.60;73.02;102030.16;4863091;28;20052;-59
2022/01/06 09:37:39;;;;;;;13.52;3.20;;;;;;;6.66;72.82;102038.22;4863316;28;20083;-59
2022/01/06 09:40:08;;;;;;;17.05;3.13;;;;;;;6.68;72.49;102038.31;4865456;28;20471;-59
2022/01/06 09:42:33;;;;;;;16.48;3.15;;;;;;;6.76;72.72;102036.97;4872776;28;20349;-58
2022/01/06 09:44:59;;;;;;;11.75;3.17;;;;;;;6.79;72.39;102039.69;4862244;28;20040;-59
2022/01/06 09:47:25;;;;;;;12.10;3.22;;;;;;;6.84;72.02;102043.38;4862242;28;20556;-59
2022/01/06 09:49:51;;;;;;;13.23;3.30;;;;;;;6.87;71.49;102047.03;4863553;28;20147;-59
2022/01/06 09:52:19;;;;;;;12.52;3.08;;;;;;;6.99;71.88;102038.03;4865787;28;20477;-60
2022/01/06 09:54:45;;;;;;;11.27;3.10;;;;;;;7.07;71.64;102049.66;4860644;28;20045;-59
2022/01/06 09:57:12;;;;;;;13.30;3.45;;;;;;;7.14;71.08;102049.09;4875783;28;20041;-58
2022/01/06 09:59:41;;;;;;;13.20;3.30;;;;;;;7.13;70.09;102048.25;4858114;28;20057;-59
2022/01/06 10:02:13;;;;;;;15.63;3.38;;;;;;;7.21;69.92;102048.56;4860314;28;20049;-59
2022/01/06 10:04:38;;;;;;;12.18;3.10;;;;;;;7.27;69.46;102044.56;4867254;28;20053;-59
2022/01/06 10:07:08;;;;;;;20.88;3.58;;;;;;;7.45;69.78;102046.19;4861103;28;20084;-59
2022/01/06 10:09:35;;;;;;;12.38;2.75;;;;;;;7.64;70.14;102043.59;4869712;28;20091;-58
2022/01/06 10:12:06;;;;;;;11.27;2.63;;;;;;;7.75;69.03;102045.84;4857437;28;20096;-59
2022/01/06 10:14:51;;;;;;;16.15;3.00;;;;;;;7.96;68.70;102053.66;4864390;28;20366;-59
2022/01/06 10:17:28;;;;;;;15.25;2.63;;;;;;;8.18;68.70;102051.97;4862910;28;20436;-58
2022/01/06 10:19:53;;;;;;;10.63;2.10;;;;;;;8.32;67.93;102049.16;4862304;28;20676;-58
2022/01/06 10:22:20;;;;;;;14.13;3.08;;;;;;;8.46;67.95;102044.53;4868236;28;20446;-59
2022/01/06 10:24:47;;;;;;;11.25;2.45;;;;;;;8.63;68.09;102050.41;4860509;28;20296;-58
2022/01/06 10:27:18;;;;;;;9.88;2.58;;;;;;;8.77;68.72;102044.03;4868462;28;20195;-60
2022/01/06 10:29:46;;;;;;;13.00;2.40;;;;;;;8.93;68.59;102036.00;4852573;28;20090;-60
2022/01/06 10:32:15;;;;;;;12.75;2.25;;;;;;;9.07;67.31;102037.41;4857165;28;20028;-59
2022/01/06 10:34:46;;;;;;;13.43;2.47;;;;;;;9.16;64.85;102036.84;4858112;28;20044;-60
2022/01/06 10:37:24;;;;;;;15.00;2.40;;;;;;;9.25;64.10;102026.81;4855750;28;20091;-59
2022/01/06 10:39:52;;;;;;;10.68;2.33;;;;;;;9.57;64.44;102033.19;4854730;28;20107;-59
2022/01/06 10:42:24;;;;;;;8.70;2.60;;;;;;;9.71;64.27;102034.53;4867139;28;20072;-59
2022/01/06 10:45:03;;;;;;;12.95;2.53;;;;;;;9.82;64.45;102032.34;4880391;28;20052;-58
2022/01/06 10:47:32;;;;;;;11.13;2.10;;;;;;;9.86;63.35;102027.28;4856580;28;20071;-60
2022/01/06 10:50:14;;;;;;;10.00;2.05;;;;;;;9.65;63.04;102030.00;4856678;28;20071;-59
2022/01/06 10:52:47;;;;;;;8.77;1.90;;;;;;;9.54;61.88;102028.75;4860780;28;20049;-58
2022/01/06 10:55:14;;;;;;;9.18;1.90;;;;;;;9.51;62.02;102018.25;4860632;28;20064;-58
2022/01/06 10:58:17;;;;;;;9.20;1.63;;;;;;;9.53;62.10;102026.06;4876054;28;20052;-59
2022/01/06 11:00:45;;;;;;;17.85;2.28;;;;;;;9.43;61.57;102022.28;4864823;28;20098;-59
2022/01/06 11:03:27;;;;;;;7.45;1.90;;;;;;;9.28;60.96;102021.69;4862412;28;20033;-59
2022/01/06 11:06:16;;;;;;;9.07;1.60;;;;;;;9.21;61.75;102028.38;4871549;28;20057;-59
2022/01/06 11:08:43;;;;;;;10.32;1.60;;;;;;;9.17;60.92;102023.91;4861721;28;20036;-59
2022/01/06 11:13:46;;;;;;;8.90;1.73;;;;;;;9.21;61.83;102031.00;4858083;28;20040;-58
2022/01/06 11:16:15;;;;;;;9.00;1.63;;;;;;;9.26;61.60;102032.06;4848928;28;20414;-59
2022/01/06 11:18:43;;;;;;;7.78;1.55;;;;;;;9.21;61.42;102025.78;4859278;28;20158;-59
2022/01/06 11:21:14;;;;;;;9.23;1.45;;;;;;;9.18;61.32;102020.47;4866587;28;20472;-58
2022/01/06 11:23:39;;;;;;;8.73;1.73;;;;;;;9.12;62.37;102028.06;4854354;28;20577;-58
2022/01/06 11:26:13;;;;;;;6.60;1.30;;;;;;;9.26;61.65;102031.19;4869331;28;20052;-58
2022/01/06 11:28:43;;;;;;;7.57;1.50;;;;;;;9.14;61.39;102028.13;4854690;28;20059;-58
2022/01/06 11:31:21;;;;;;;8.88;1.73;;;;;;;9.06;60.80;102020.03;4860495;28;20048;-59
2022/01/06 11:33:50;;;;;;;5.93;1.50;;;;;;;9.16;61.44;102026.44;4854105;28;20052;-59
2022/01/06 11:36:35;;;;;;;9.10;1.70;;;;;;;9.15;61.46;102020.34;4867055;28;20120;-59